Time;durP1;ratioP1;P1;durP2;ratioP2;P2;SDS_P1;SDS_P2;PMS_P1;PMS_P2;Temp;Humidity;BMP_temperature;BMP_pressure;BME280_temperature;BME280_humidity;BME280_pressure;Samples;Min_cycle;Max_cycle;Signal;HPM_P1;HPM_P2
2021/12/26 00:00:45;;;;;;;3.10;0.98;;;-1.60;67.00;;;;;;5078771;28;20035;-59
2021/12/26 00:03:12;;;;;;;3.78;1.05;;;-1.60;67.10;;;;;;5052484;28;20024;-59
2021/12/26 00:05:37;;;;;;;1.83;0.80;;;-1.70;67.20;;;;;;5042984;28;20028;-58
2021/12/26 00:08:03;;;;;;;2.92;0.95;;;-1.60;67.30;;;;;;5078275;28;20027;-58
2021/12/26 00:10:29;;;;;;;1.45;0.80;;;-1.60;67.30;;;;;;5077781;28;20025;-59
2021/12/26 00:12:56;;;;;;;3.03;1.15;;;-1.50;67.30;;;;;;5069903;28;20055;-59
2021/12/26 00:15:23;;;;;;;3.58;0.95;;;-1.50;67.10;;;;;;5074365;28;20035;-59
2021/12/26 00:17:49;;;;;;;2.22;1.08;;;-1.50;67.20;;;;;;5072945;28;20040;-59
2021/12/26 00:20:15;;;;;;;3.08;1.20;;;-1.50;67.10;;;;;;5069426;28;20023;-59
2021/12/26 00:22:42;;;;;;;3.05;1.45;;;-1.50;67.10;;;;;;5075086;28;20072;-59
2021/12/26 00:25:09;;;;;;;4.07;1.25;;;-1.50;68.00;;;;;;5075060;28;20031;-58
2021/12/26 00:27:35;;;;;;;1.67;1.02;;;-1.50;67.40;;;;;;5069285;28;20446;-58
2021/12/26 00:30:03;;;;;;;2.45;0.98;;;-1.50;67.50;;;;;;5076601;28;20028;-59
2021/12/26 00:32:28;;;;;;;1.75;1.02;;;-1.50;67.50;;;;;;5074897;28;20024;-58
2021/12/26 00:34:54;;;;;;;3.00;1.23;;;-1.60;68.10;;;;;;5070181;28;20078;-59
2021/12/26 00:37:19;;;;;;;4.03;1.23;;;-1.50;67.80;;;;;;5078430;28;20032;-58
2021/12/26 00:39:46;;;;;;;1.83;0.90;;;-1.60;68.10;;;;;;5077694;28;20396;-59
2021/12/26 00:42:11;;;;;;;1.60;1.05;;;-1.60;68.00;;;;;;5068819;28;20032;-59
2021/12/26 00:44:40;;;;;;;4.22;0.90;;;-1.50;68.20;;;;;;5072002;28;20031;-59
2021/12/26 00:47:10;;;;;;;2.47;1.10;;;-1.60;68.10;;;;;;5073883;28;20032;-59
2021/12/26 00:49:36;;;;;;;4.55;1.00;;;-1.60;68.10;;;;;;5071924;28;20016;-59
2021/12/26 00:52:02;;;;;;;3.50;1.23;;;-1.50;68.10;;;;;;5069021;28;20036;-58
2021/12/26 00:54:28;;;;;;;3.13;1.38;;;-1.60;68.10;;;;;;5074479;28;20020;-59
2021/12/26 00:56:53;;;;;;;4.68;2.13;;;-1.60;68.20;;;;;;5072264;28;20028;-59
2021/12/26 00:59:19;;;;;;;2.25;1.10;;;-1.60;67.90;;;;;;5076505;28;20043;-59
2021/12/26 01:01:44;;;;;;;2.78;1.08;;;-1.70;68.00;;;;;;5068731;28;20025;-58
2021/12/26 01:04:12;;;;;;;2.90;1.00;;;-1.70;68.20;;;;;;5071574;28;20384;-58
2021/12/26 01:06:37;;;;;;;4.22;1.10;;;-1.70;68.30;;;;;;5074205;28;20491;-59
2021/12/26 01:09:04;;;;;;;2.60;1.00;;;-1.60;68.50;;;;;;5074198;28;20025;-59
2021/12/26 01:11:39;;;;;;;2.45;1.02;;;-1.70;68.50;;;;;;5074322;28;20474;-59
2021/12/26 01:14:08;;;;;;;2.40;1.30;;;-1.70;68.40;;;;;;5054461;28;20012;-59
2021/12/26 01:16:35;;;;;;;3.23;1.00;;;-1.70;68.60;;;;;;5070691;28;20034;-59
2021/12/26 01:19:13;;;;;;;2.22;1.20;;;-1.70;68.70;;;;;;5073141;28;20020;-59
2021/12/26 01:21:39;;;;;;;2.88;1.10;;;-1.70;68.80;;;;;;5057099;28;20017;-59
2021/12/26 01:24:08;;;;;;;2.97;1.02;;;-1.70;68.70;;;;;;5070970;28;20120;-59
2021/12/26 01:26:34;;;;;;;3.80;1.63;;;-1.60;68.70;;;;;;5071266;28;20035;-59
2021/12/26 01:29:00;;;;;;;3.25;1.38;;;-1.60;68.60;;;;;;5072459;28;20009;-59
2021/12/26 01:31:26;;;;;;;1.80;0.90;;;-1.60;68.70;;;;;;5056749;28;20384;-59
2021/12/26 01:33:56;;;;;;;2.53;0.90;;;-1.60;68.70;;;;;;5073685;28;20051;-59
2021/12/26 01:36:22;;;;;;;3.22;1.00;;;-1.50;68.80;;;;;;5070950;28;20021;-59
2021/12/26 01:38:48;;;;;;;2.78;1.30;;;-1.50;68.80;;;;;;5068125;28;20496;-59
2021/12/26 01:41:16;;;;;;;2.88;1.05;;;-1.60;68.60;;;;;;5067855;28;20030;-59
2021/12/26 01:43:46;;;;;;;3.20;1.40;;;-1.50;68.70;;;;;;5068014;28;20020;-59
2021/12/26 01:46:12;;;;;;;3.03;1.45;;;-1.50;68.60;;;;;;5070465;28;20115;-58
2021/12/26 01:48:38;;;;;;;3.53;1.05;;;-1.60;68.50;;;;;;5071032;28;20029;-59
2021/12/26 01:51:04;;;;;;;3.88;1.10;;;-1.60;68.50;;;;;;5067945;28;20028;-58
2021/12/26 01:53:36;;;;;;;3.50;1.40;;;-1.60;68.70;;;;;;5073338;28;20034;-58
2021/12/26 01:56:05;;;;;;;2.67;1.20;;;-1.60;68.80;;;;;;5073707;28;20024;-59
2021/12/26 01:58:31;;;;;;;2.63;1.17;;;-1.60;68.80;;;;;;5050010;28;20032;-58
2021/12/26 02:01:06;;;;;;;4.72;1.15;;;-1.70;68.90;;;;;;5069177;28;20020;-59
2021/12/26 02:03:32;;;;;;;2.28;0.95;;;-1.60;68.90;;;;;;5073775;28;20516;-58
2021/12/26 02:05:57;;;;;;;2.20;1.20;;;-1.70;68.90;;;;;;5073535;28;20078;-58
2021/12/26 02:08:23;;;;;;;4.15;1.08;;;-1.70;68.80;;;;;;5075381;28;20464;-58
2021/12/26 02:10:49;;;;;;;2.03;1.00;;;-1.70;68.80;;;;;;5074209;28;20047;-59
2021/12/26 02:13:15;;;;;;;3.10;1.27;;;-1.70;68.90;;;;;;5067643;28;20468;-59
2021/12/26 02:15:41;;;;;;;2.70;1.20;;;-1.70;68.90;;;;;;5074722;28;20074;-58
2021/12/26 02:18:08;;;;;;;2.17;0.80;;;-1.70;68.90;;;;;;5074301;28;20844;-59
2021/12/26 02:20:48;;;;;;;2.80;1.00;;;-1.70;68.80;;;;;;5073154;28;20024;-59
2021/12/26 02:23:23;;;;;;;2.60;0.98;;;-1.70;68.70;;;;;;5067484;28;20040;-59
2021/12/26 02:28:47;;;;;;;3.17;1.10;;;-1.80;68.90;;;;;;5052840;28;20046;-59
2021/12/26 02:31:14;;;;;;;3.45;1.17;;;-1.80;69.10;;;;;;5068122;28;20037;-58
2021/12/26 02:33:40;;;;;;;4.45;1.30;;;-1.80;69.30;;;;;;5072494;28;20032;-58
2021/12/26 02:36:06;;;;;;;2.67;1.20;;;-1.80;69.40;;;;;;5073329;28;20020;-58
2021/12/26 02:38:33;;;;;;;1.73;0.98;;;-1.80;69.50;;;;;;5073492;28;20032;-58
2021/12/26 02:40:59;;;;;;;3.13;0.90;;;-1.80;69.70;;;;;;5072725;28;20028;-58
2021/12/26 02:43:27;;;;;;;2.00;0.95;;;-1.80;69.90;;;;;;5067645;28;20506;-58
2021/12/26 02:45:53;;;;;;;2.45;1.00;;;-1.80;70.10;;;;;;5069712;28;20372;-58
2021/12/26 02:48:19;;;;;;;2.60;1.10;;;-1.90;70.20;;;;;;5067738;28;20043;-59
2021/12/26 02:50:47;;;;;;;2.40;1.17;;;-1.90;70.20;;;;;;5067656;28;20028;-58
2021/12/26 02:53:20;;;;;;;3.28;1.10;;;-1.90;70.20;;;;;;5075720;28;20353;-58
2021/12/26 02:55:48;;;;;;;3.10;1.40;;;-1.90;70.20;;;;;;5067567;28;20427;-59
2021/12/26 02:58:13;;;;;;;2.72;0.90;;;-2.00;70.30;;;;;;5070695;28;20024;-58
2021/12/26 03:00:43;;;;;;;3.90;1.00;;;-2.00;70.50;;;;;;5072257;28;20028;-58
2021/12/26 03:03:09;;;;;;;3.03;1.40;;;-2.00;70.60;;;;;;5071799;28;20025;-58
2021/12/26 03:05:38;;;;;;;2.38;1.30;;;-2.10;70.60;;;;;;5070930;28;20024;-58
2021/12/26 03:08:05;;;;;;;4.63;1.43;;;-2.10;71.30;;;;;;5073804;28;20033;-58
2021/12/26 03:10:31;;;;;;;2.33;1.05;;;-2.10;70.80;;;;;;5073609;28;20028;-58
2021/12/26 03:12:59;;;;;;;2.58;1.30;;;-2.10;70.80;;;;;;5073448;28;20027;-58
2021/12/26 03:15:26;;;;;;;3.70;1.10;;;-2.10;70.80;;;;;;5087188;28;20020;-58
2021/12/26 03:17:55;;;;;;;4.07;1.13;;;-2.10;70.80;;;;;;5091200;28;20031;-58
2021/12/26 03:20:25;;;;;;;2.03;0.93;;;-2.10;70.80;;;;;;5070826;28;20078;-58
2021/12/26 03:22:51;;;;;;;2.08;1.00;;;-2.10;70.80;;;;;;5055699;28;20298;-58
2021/12/26 03:25:20;;;;;;;3.75;1.38;;;-2.10;70.80;;;;;;5055536;28;20028;-58
2021/12/26 03:27:46;;;;;;;3.30;1.20;;;-2.10;70.80;;;;;;5073391;28;20031;-58
2021/12/26 03:30:15;;;;;;;2.35;0.98;;;-2.10;70.80;;;;;;5073328;28;20100;-58
2021/12/26 03:32:41;;;;;;;3.33;1.20;;;-2.10;70.90;;;;;;5073509;28;20024;-58
2021/12/26 03:35:08;;;;;;;2.72;1.13;;;-2.10;71.00;;;;;;5076173;28;20020;-58
2021/12/26 03:37:34;;;;;;;4.03;1.10;;;-2.10;71.00;;;;;;5082098;28;20107;-58
2021/12/26 03:39:59;;;;;;;2.70;1.10;;;-2.10;71.00;;;;;;5091487;28;20846;-59
2021/12/26 03:42:25;;;;;;;3.22;1.30;;;-2.10;71.20;;;;;;5074137;28;20043;-58
2021/12/26 03:44:52;;;;;;;2.67;1.08;;;-2.10;71.20;;;;;;5079001;28;20052;-58
2021/12/26 03:47:18;;;;;;;2.72;1.10;;;-2.10;71.20;;;;;;5066418;28;20086;-58
2021/12/26 03:49:44;;;;;;;3.20;1.38;;;-2.00;71.30;;;;;;5071844;28;20066;-58
2021/12/26 03:52:10;;;;;;;1.90;1.08;;;-2.00;71.10;;;;;;5073110;28;20032;-58
2021/12/26 03:54:36;;;;;;;2.42;1.08;;;-2.00;71.00;;;;;;5074139;28;20020;-58
2021/12/26 03:57:01;;;;;;;2.85;1.27;;;-2.00;71.00;;;;;;5075711;28;20035;-58
2021/12/26 03:59:28;;;;;;;3.88;1.33;;;-2.00;71.60;;;;;;5072822;28;20024;-58
2021/12/26 04:01:55;;;;;;;2.75;1.00;;;-2.00;71.00;;;;;;5072382;28;20021;-58
2021/12/26 04:04:20;;;;;;;2.53;1.17;;;-2.00;70.90;;;;;;5078324;28;20476;-58
2021/12/26 04:06:47;;;;;;;3.50;1.20;;;-2.00;70.80;;;;;;5072672;28;20016;-58
2021/12/26 04:09:13;;;;;;;3.40;1.17;;;-2.00;70.80;;;;;;5075210;28;20012;-58
2021/12/26 04:11:41;;;;;;;2.83;1.35;;;-1.90;70.70;;;;;;5073557;28;20070;-58
2021/12/26 04:14:07;;;;;;;2.55;1.02;;;-1.90;70.60;;;;;;5071389;28;20020;-58
2021/12/26 04:16:33;;;;;;;2.17;1.05;;;-1.90;70.50;;;;;;5074661;28;20024;-59
2021/12/26 04:18:58;;;;;;;2.75;0.90;;;-1.90;70.50;;;;;;5076573;28;20024;-59
2021/12/26 04:21:24;;;;;;;3.72;1.27;;;-1.90;70.40;;;;;;5073961;28;20029;-58
2021/12/26 04:23:49;;;;;;;3.40;1.10;;;-1.90;70.30;;;;;;5074717;28;20041;-58
2021/12/26 04:26:15;;;;;;;4.70;1.52;;;-1.90;70.10;;;;;;5077721;28;20089;-59
2021/12/26 04:28:40;;;;;;;2.03;1.17;;;-1.90;70.10;;;;;;5059693;28;20032;-58
2021/12/26 04:31:06;;;;;;;3.38;1.17;;;-1.90;70.30;;;;;;5069255;28;20024;-58
2021/12/26 04:33:32;;;;;;;3.50;1.67;;;-1.90;70.30;;;;;;5074854;28;20051;-58
2021/12/26 04:35:57;;;;;;;2.17;1.00;;;-1.90;70.10;;;;;;5074983;28;20020;-58
2021/12/26 04:38:23;;;;;;;3.58;1.42;;;-1.80;70.10;;;;;;5074890;28;20036;-58
2021/12/26 04:40:51;;;;;;;3.22;1.67;;;-1.80;70.00;;;;;;5077624;28;20020;-58
2021/12/26 04:43:17;;;;;;;3.15;1.13;;;-1.80;70.00;;;;;;5071856;28;20047;-58
2021/12/26 04:45:43;;;;;;;2.08;1.08;;;-1.80;70.00;;;;;;5074445;28;20020;-59
2021/12/26 04:48:08;;;;;;;4.55;1.10;;;-1.80;70.00;;;;;;5071397;28;20078;-58
2021/12/26 04:50:34;;;;;;;3.53;1.40;;;-1.70;70.00;;;;;;5056415;28;20066;-58
2021/12/26 04:53:00;;;;;;;3.88;1.35;;;-1.70;70.00;;;;;;5070170;28;20024;-59
2021/12/26 04:55:27;;;;;;;2.28;1.05;;;-1.70;69.90;;;;;;5073233;28;20025;-58
2021/12/26 04:57:53;;;;;;;2.83;1.33;;;-1.70;70.00;;;;;;5071582;28;20304;-58
2021/12/26 05:00:21;;;;;;;3.50;1.20;;;-1.70;70.10;;;;;;5074386;28;20025;-58
2021/12/26 05:02:48;;;;;;;2.20;1.10;;;-1.70;70.10;;;;;;5071530;28;20020;-58
2021/12/26 05:05:14;;;;;;;2.42;1.00;;;-1.70;70.10;;;;;;5079548;28;20028;-58
2021/12/26 05:07:41;;;;;;;3.10;1.08;;;-1.70;70.10;;;;;;5075436;28;20035;-58
2021/12/26 05:10:09;;;;;;;4.55;1.30;;;-1.70;70.00;;;;;;5075818;28;20052;-59
2021/12/26 05:12:36;;;;;;;3.55;1.20;;;-1.70;70.20;;;;;;5071307;28;20025;-58
2021/12/26 05:15:05;;;;;;;2.42;1.15;;;-1.70;70.30;;;;;;5070257;28;20067;-59
2021/12/26 05:17:30;;;;;;;2.78;1.23;;;-1.70;70.20;;;;;;5077225;28;20037;-58
2021/12/26 05:19:56;;;;;;;3.38;1.13;;;-1.70;70.20;;;;;;5073810;28;20031;-58
2021/12/26 05:22:22;;;;;;;3.22;1.27;;;-1.60;70.50;;;;;;5070965;28;20055;-58
2021/12/26 05:24:48;;;;;;;1.88;1.02;;;-1.60;70.50;;;;;;5068506;28;20024;-58
2021/12/26 05:27:14;;;;;;;2.90;1.17;;;-1.60;70.50;;;;;;5070584;28;20055;-58
2021/12/26 05:29:40;;;;;;;2.97;1.08;;;-1.60;70.50;;;;;;5072456;28;20052;-58
2021/12/26 05:32:06;;;;;;;2.22;1.23;;;-1.60;70.60;;;;;;5075424;28;20055;-59
2021/12/26 05:34:32;;;;;;;3.97;1.27;;;-1.60;70.50;;;;;;5070729;28;20032;-58
2021/12/26 05:36:57;;;;;;;3.45;1.30;;;-1.60;70.40;;;;;;5074518;28;20032;-58
2021/12/26 05:39:23;;;;;;;1.98;1.02;;;-1.60;70.30;;;;;;5078417;28;20103;-58
2021/12/26 05:41:48;;;;;;;2.40;1.10;;;-1.60;70.40;;;;;;5073765;28;20480;-58
2021/12/26 05:44:14;;;;;;;3.28;1.50;;;-1.60;70.40;;;;;;5068403;28;20612;-59
2021/12/26 05:46:40;;;;;;;4.07;1.30;;;-1.60;70.20;;;;;;5075857;28;20020;-59
2021/12/26 05:49:05;;;;;;;2.65;1.00;;;-1.60;70.00;;;;;;5073544;28;20070;-58
2021/12/26 05:51:32;;;;;;;5.63;1.63;;;-1.60;70.10;;;;;;5055395;28;20031;-59
2021/12/26 05:53:57;;;;;;;2.47;1.25;;;-1.60;70.30;;;;;;5070889;28;20013;-58
2021/12/26 05:56:23;;;;;;;4.50;0.90;;;-1.60;70.30;;;;;;5073656;28;20032;-58
2021/12/26 05:58:49;;;;;;;2.67;1.00;;;-1.60;70.30;;;;;;5068021;28;20028;-58
2021/12/26 06:01:15;;;;;;;2.67;1.20;;;-1.60;70.30;;;;;;5067738;28;20042;-58
2021/12/26 06:03:40;;;;;;;2.63;1.15;;;-1.60;70.40;;;;;;5067899;28;20037;-58
2021/12/26 06:06:06;;;;;;;3.15;1.05;;;-1.60;70.30;;;;;;5075368;28;20476;-58
2021/12/26 06:08:32;;;;;;;2.10;1.00;;;-1.60;70.20;;;;;;5073923;28;20453;-58
2021/12/26 06:10:58;;;;;;;3.33;1.20;;;-1.70;70.20;;;;;;5071580;28;20029;-58
2021/12/26 06:13:23;;;;;;;1.67;0.88;;;-1.70;70.40;;;;;;5064218;28;20027;-58
2021/12/26 06:15:49;;;;;;;2.70;1.15;;;-1.60;70.50;;;;;;5071631;28;20024;-58
2021/12/26 06:18:14;;;;;;;3.45;1.13;;;-1.60;70.50;;;;;;5070753;28;20032;-59
2021/12/26 06:20:40;;;;;;;2.63;1.05;;;-1.60;70.60;;;;;;5067639;28;20434;-58
2021/12/26 06:23:06;;;;;;;2.25;1.15;;;-1.60;70.70;;;;;;5070476;28;20063;-58
2021/12/26 06:25:32;;;;;;;2.80;1.00;;;-1.60;70.70;;;;;;5070459;28;21138;-58
2021/12/26 06:27:57;;;;;;;3.40;1.15;;;-1.60;70.80;;;;;;5052560;28;20027;-58
2021/12/26 06:30:23;;;;;;;2.40;1.20;;;-1.70;70.90;;;;;;5070474;28;20029;-58
2021/12/26 06:32:49;;;;;;;3.05;0.80;;;-1.60;71.00;;;;;;5070165;28;20029;-58
2021/12/26 06:35:14;;;;;;;1.52;0.93;;;-1.60;71.10;;;;;;5070641;28;20023;-58
2021/12/26 06:37:40;;;;;;;3.08;1.45;;;-1.60;71.20;;;;;;5074801;28;20119;-58
2021/12/26 06:40:10;;;;;;;2.75;1.20;;;-1.60;71.20;;;;;;5076024;28;20480;-59
2021/12/26 06:42:41;;;;;;;2.92;1.40;;;-1.60;71.30;;;;;;5083927;28;20032;-58
2021/12/26 06:45:08;;;;;;;4.05;1.00;;;-1.60;71.50;;;;;;5074189;28;20016;-58
2021/12/26 06:47:33;;;;;;;3.08;0.98;;;-1.60;71.50;;;;;;5071092;28;20051;-58
2021/12/26 06:49:59;;;;;;;3.10;1.10;;;-1.60;71.60;;;;;;5071298;28;20047;-58
2021/12/26 06:52:25;;;;;;;2.30;1.10;;;-1.60;71.80;;;;;;5078624;28;20063;-58
2021/12/26 06:54:50;;;;;;;2.35;0.98;;;-1.60;71.80;;;;;;5074808;28;20016;-59
2021/12/26 06:57:16;;;;;;;2.65;1.17;;;-1.60;71.90;;;;;;5073959;28;20029;-58
2021/12/26 06:59:41;;;;;;;2.75;1.00;;;-1.60;71.90;;;;;;5073508;28;20029;-59
2021/12/26 07:02:07;;;;;;;2.97;1.00;;;-1.70;71.80;;;;;;5076288;28;20054;-59
2021/12/26 07:04:32;;;;;;;2.67;1.10;;;-1.60;72.00;;;;;;5076474;28;20074;-58
2021/12/26 07:06:58;;;;;;;2.50;1.45;;;-1.70;72.00;;;;;;5090525;28;20028;-58
2021/12/26 07:09:23;;;;;;;2.40;1.20;;;-1.70;72.10;;;;;;5074705;28;20447;-59
2021/12/26 07:11:49;;;;;;;2.55;1.20;;;-1.60;72.20;;;;;;5074808;28;20103;-58
2021/12/26 07:14:14;;;;;;;2.60;1.23;;;-1.70;72.10;;;;;;5083961;28;20039;-58
2021/12/26 07:16:40;;;;;;;2.90;1.58;;;-1.70;72.20;;;;;;5081737;28;20028;-58
2021/12/26 07:19:06;;;;;;;4.25;1.30;;;-1.70;72.30;;;;;;5079989;28;20035;-58
2021/12/26 07:21:31;;;;;;;2.92;0.88;;;-1.70;72.30;;;;;;5067720;28;20556;-59
2021/12/26 07:23:57;;;;;;;2.38;1.17;;;-1.70;72.40;;;;;;5076808;28;20068;-58
2021/12/26 07:26:24;;;;;;;2.63;1.10;;;-1.70;72.50;;;;;;5074612;28;20032;-58
2021/12/26 07:28:50;;;;;;;2.25;1.10;;;-1.70;72.60;;;;;;5074351;28;20052;-59
2021/12/26 07:31:15;;;;;;;2.40;1.10;;;-1.70;72.70;;;;;;5074378;28;20409;-59
2021/12/26 07:33:41;;;;;;;4.00;1.13;;;-1.70;72.80;;;;;;5074397;28;20035;-59
2021/12/26 07:36:07;;;;;;;6.47;1.60;;;-1.70;73.00;;;;;;5074272;28;20024;-59
2021/12/26 07:38:33;;;;;;;3.53;1.50;;;-1.70;73.20;;;;;;5074482;28;20032;-59
2021/12/26 07:40:58;;;;;;;2.60;1.00;;;-1.70;73.30;;;;;;5074417;28;20740;-59
2021/12/26 07:43:24;;;;;;;4.93;1.45;;;-1.80;73.60;;;;;;5074254;28;20425;-58
2021/12/26 07:45:49;;;;;;;3.08;1.45;;;-1.80;73.80;;;;;;5084876;28;20675;-59
2021/12/26 07:48:15;;;;;;;4.45;1.35;;;-1.80;74.10;;;;;;5093841;28;20039;-59
2021/12/26 07:50:40;;;;;;;3.60;1.52;;;-1.80;74.20;;;;;;5094202;28;20031;-59
2021/12/26 07:53:10;;;;;;;3.42;1.35;;;-1.80;74.30;;;;;;5094496;28;20056;-59
2021/12/26 07:55:36;;;;;;;2.97;1.27;;;-1.80;74.40;;;;;;5094277;28;20119;-58
2021/12/26 07:58:03;;;;;;;2.28;1.20;;;-1.80;74.40;;;;;;5094309;28;20032;-59
2021/12/26 08:00:28;;;;;;;3.05;1.38;;;-1.80;74.50;;;;;;5075872;28;20024;-59
2021/12/26 08:02:56;;;;;;;2.60;1.33;;;-1.80;74.50;;;;;;5093920;28;20039;-58
2021/12/26 08:05:21;;;;;;;3.03;1.10;;;-1.80;74.50;;;;;;5075899;28;20032;-58
2021/12/26 08:07:47;;;;;;;3.03;1.52;;;-1.80;74.50;;;;;;5075643;28;20036;-59
2021/12/26 08:10:12;;;;;;;2.70;1.30;;;-1.80;74.60;;;;;;5094052;28;20700;-59
2021/12/26 08:12:38;;;;;;;3.97;1.70;;;-1.80;74.60;;;;;;5093435;28;20028;-59
2021/12/26 08:15:04;;;;;;;2.67;1.50;;;-1.70;74.60;;;;;;5093598;28;20028;-59
2021/12/26 08:17:31;;;;;;;3.95;1.60;;;-1.70;74.70;;;;;;5074239;28;20040;-59
2021/12/26 08:19:59;;;;;;;3.35;1.33;;;-1.70;74.80;;;;;;5090034;28;20042;-59
2021/12/26 08:22:25;;;;;;;3.25;1.20;;;-1.70;74.80;;;;;;5092141;28;20051;-58
2021/12/26 08:24:51;;;;;;;4.72;2.00;;;-1.60;75.00;;;;;;5092764;28;20032;-59
2021/12/26 08:27:17;;;;;;;2.45;1.27;;;-1.60;75.20;;;;;;5092553;28;20027;-59
2021/12/26 08:29:42;;;;;;;4.50;1.67;;;-1.60;75.30;;;;;;5078636;28;20361;-59
2021/12/26 08:32:13;;;;;;;2.58;1.20;;;-1.60;75.20;;;;;;5086320;28;20467;-59
2021/12/26 08:34:38;;;;;;;4.38;1.15;;;-1.60;75.20;;;;;;5087824;28;20020;-58
2021/12/26 08:37:05;;;;;;;2.72;1.50;;;-1.50;75.30;;;;;;5093022;28;20016;-58
2021/12/26 08:39:33;;;;;;;5.18;1.92;;;-1.50;75.20;;;;;;5091775;28;20016;-59
2021/12/26 08:41:59;;;;;;;2.97;1.10;;;-1.40;75.20;;;;;;5091596;28;20114;-58
2021/12/26 08:44:25;;;;;;;3.00;1.38;;;-1.40;75.10;;;;;;5091750;28;20024;-58
2021/12/26 08:46:51;;;;;;;6.88;1.98;;;-1.30;75.10;;;;;;5092402;28;20384;-59
2021/12/26 08:49:18;;;;;;;3.92;1.30;;;-1.30;74.90;;;;;;5089366;28;20069;-59
2021/12/26 08:51:44;;;;;;;2.35;1.30;;;-1.30;74.80;;;;;;5091911;28;20063;-59
2021/12/26 08:54:10;;;;;;;2.38;1.25;;;-1.20;74.80;;;;;;5092488;28;20024;-59
2021/12/26 08:56:37;;;;;;;3.28;1.27;;;-1.10;74.70;;;;;;5092997;28;20023;-59
2021/12/26 08:59:02;;;;;;;4.32;1.33;;;-1.10;74.60;;;;;;5092914;28;20598;-58
2021/12/26 09:01:28;;;;;;;3.35;1.40;;;-1.00;74.50;;;;;;5092265;28;20070;-58
2021/12/26 09:03:54;;;;;;;3.88;1.25;;;-1.00;74.30;;;;;;5074785;28;20604;-58
2021/12/26 09:06:19;;;;;;;2.85;1.35;;;-0.90;74.20;;;;;;5073673;28;20035;-59
2021/12/26 09:08:45;;;;;;;3.30;1.83;;;-0.90;74.10;;;;;;5091442;28;20047;-59
2021/12/26 09:11:11;;;;;;;3.15;1.45;;;-0.80;74.10;;;;;;5084693;28;20078;-59
2021/12/26 09:13:36;;;;;;;2.75;1.35;;;-0.70;74.00;;;;;;5070999;28;20029;-59
2021/12/26 09:16:03;;;;;;;2.58;1.35;;;-0.70;73.90;;;;;;5079273;28;20061;-59
2021/12/26 09:18:28;;;;;;;3.38;1.30;;;-0.70;73.80;;;;;;5091634;28;20016;-59
2021/12/26 09:20:54;;;;;;;3.00;1.33;;;-0.60;73.60;;;;;;5088257;28;20038;-59
2021/12/26 09:23:19;;;;;;;4.38;1.95;;;-0.50;73.60;;;;;;5091143;28;20032;-59
2021/12/26 09:25:45;;;;;;;2.97;1.55;;;-0.40;73.60;;;;;;5092731;28;20053;-59
2021/12/26 09:28:10;;;;;;;2.30;1.27;;;-0.40;73.40;;;;;;5092211;28;20142;-59
2021/12/26 09:30:37;;;;;;;4.22;1.63;;;-0.30;73.40;;;;;;5092315;28;20019;-59
2021/12/26 09:33:03;;;;;;;4.55;1.67;;;-0.30;73.30;;;;;;5092428;28;20031;-59
2021/12/26 09:35:29;;;;;;;2.65;1.35;;;-0.20;73.20;;;;;;5092154;28;20032;-59
2021/12/26 09:37:54;;;;;;;3.25;1.50;;;-0.10;73.10;;;;;;5092146;28;20036;-58
2021/12/26 09:40:20;;;;;;;4.72;1.75;;;0.00;72.90;;;;;;5092210;28;20024;-58
2021/12/26 09:42:46;;;;;;;4.20;1.30;;;0.00;72.60;;;;;;5091960;28;20038;-59
2021/12/26 09:45:13;;;;;;;3.40;1.50;;;0.10;72.50;;;;;;5092150;28;20495;-58
2021/12/26 09:47:40;;;;;;;4.47;1.75;;;0.20;72.60;;;;;;5074211;28;20028;-58
2021/12/26 09:50:08;;;;;;;3.08;1.60;;;0.30;72.30;;;;;;5074116;28;20103;-58
2021/12/26 09:52:34;;;;;;;2.85;1.50;;;0.40;72.30;;;;;;5091812;28;20029;-58
2021/12/26 09:55:00;;;;;;;4.28;1.55;;;0.60;72.30;;;;;;5091878;28;20448;-59
2021/12/26 09:57:27;;;;;;;3.67;1.70;;;0.90;72.10;;;;;;5091798;28;20032;-59
2021/12/26 09:59:53;;;;;;;3.40;1.65;;;1.30;71.30;;;;;;5091958;28;20018;-59
2021/12/26 10:02:20;;;;;;;2.45;1.40;;;1.60;70.60;;;;;;5092128;28;20032;-59
2021/12/26 10:04:48;;;;;;;2.10;1.05;;;1.90;70.30;;;;;;5091929;28;20054;-59
2021/12/26 10:07:19;;;;;;;2.88;1.48;;;2.20;69.80;;;;;;5091462;28;20468;-59
2021/12/26 10:09:48;;;;;;;3.33;1.40;;;2.50;68.90;;;;;;5090185;28;20070;-59
2021/12/26 10:12:14;;;;;;;2.70;1.23;;;2.80;68.60;;;;;;5092750;28;20440;-59
2021/12/26 10:14:43;;;;;;;1.92;1.05;;;3.00;68.40;;;;;;5095145;28;20393;-59
2021/12/26 10:17:12;;;;;;;5.15;2.17;;;3.30;68.10;;;;;;5095188;28;20375;-59
2021/12/26 10:19:41;;;;;;;2.83;1.50;;;3.70;67.30;;;;;;5094288;28;20020;-59
2021/12/26 10:22:08;;;;;;;5.93;2.58;;;4.20;66.50;;;;;;5088974;28;20035;-59
2021/12/26 10:24:36;;;;;;;3.97;2.22;;;4.70;65.50;;;;;;5091150;28;20113;-59
2021/12/26 10:27:08;;;;;;;3.88;2.47;;;4.70;64.10;;;;;;5094906;28;20020;-59
2021/12/26 10:29:50;;;;;;;3.75;2.30;;;4.90;63.50;;;;;;5076255;28;20032;-60
2021/12/26 10:32:18;;;;;;;3.50;1.80;;;5.10;63.10;;;;;;5094778;28;20103;-59
2021/12/26 10:34:48;;;;;;;2.80;1.83;;;5.00;62.50;;;;;;5094840;28;20020;-59
2021/12/26 10:37:23;;;;;;;2.50;1.50;;;4.80;63.00;;;;;;5076638;28;20077;-59
2021/12/26 10:39:55;;;;;;;4.20;2.13;;;4.50;63.40;;;;;;5094264;28;20119;-59
2021/12/26 10:42:30;;;;;;;3.90;1.80;;;4.40;64.30;;;;;;5076236;28;20506;-59
2021/12/26 10:45:01;;;;;;;3.50;2.10;;;4.40;64.50;;;;;;5094717;28;20058;-59
2021/12/26 10:47:34;;;;;;;3.63;2.20;;;4.30;63.80;;;;;;5094460;28;20024;-59
2021/12/26 10:50:06;;;;;;;4.68;2.03;;;4.30;64.30;;;;;;5094395;28;20058;-59
2021/12/26 10:52:40;;;;;;;4.00;2.33;;;4.30;64.30;;;;;;5094501;28;20419;-59
2021/12/26 10:55:11;;;;;;;4.10;2.08;;;4.40;64.20;;;;;;5076185;28;20020;-59
2021/12/26 10:57:41;;;;;;;4.75;2.05;;;4.50;64.40;;;;;;5094144;28;20499;-59
2021/12/26 11:00:28;;;;;;;4.22;2.13;;;4.60;63.50;;;;;;5094174;28;20428;-60
2021/12/26 11:03:01;;;;;;;2.63;1.98;;;5.20;62.90;;;;;;5093341;28;20028;-59
2021/12/26 11:05:38;;;;;;;3.40;2.00;;;5.50;61.40;;;;;;5094262;28;20042;-59
2021/12/26 11:08:11;;;;;;;2.80;1.80;;;5.40;61.20;;;;;;5094504;28;20032;-59
2021/12/26 11:10:51;;;;;;;4.38;2.65;;;5.30;61.50;;;;;;5094616;28;20468;-59
2021/12/26 11:13:29;;;;;;;3.78;2.60;;;5.20;61.70;;;;;;5093208;28;20047;-59
2021/12/26 11:16:00;;;;;;;3.85;2.40;;;4.90;61.20;;;;;;5094755;28;20020;-59
2021/12/26 11:18:26;;;;;;;4.47;2.70;;;4.60;62.00;;;;;;5094721;28;20032;-59
2021/12/26 11:20:55;;;;;;;4.68;2.45;;;4.50;62.60;;;;;;5076658;28;20096;-59
2021/12/26 11:23:32;;;;;;;4.45;2.50;;;4.30;63.00;;;;;;5093862;28;20066;-59
2021/12/26 11:26:07;;;;;;;5.53;2.80;;;4.10;63.60;;;;;;5094673;28;20032;-59
2021/12/26 11:28:38;;;;;;;4.10;2.40;;;4.00;64.30;;;;;;5094413;28;20028;-59
2021/12/26 11:31:15;;;;;;;5.75;2.95;;;3.80;64.70;;;;;;5094225;28;20099;-59
2021/12/26 11:33:41;;;;;;;4.28;2.92;;;3.80;65.30;;;;;;5076514;28;20530;-59
2021/12/26 11:36:10;;;;;;;5.80;2.92;;;3.60;65.90;;;;;;5094553;28;20028;-59
2021/12/26 11:38:36;;;;;;;5.40;3.00;;;3.60;66.20;;;;;;5094819;28;20098;-59
2021/12/26 11:41:05;;;;;;;5.28;2.80;;;3.50;66.50;;;;;;5094258;28;20027;-59
2021/12/26 11:44:11;;;;;;;5.27;2.73;;;3.50;66.80;;;;;;5094283;28;20032;-59
2021/12/26 11:47:19;;;;;;;5.22;3.17;;;3.50;66.80;;;;;;5094140;28;20039;-59
2021/12/26 11:50:03;;;;;;;6.68;3.30;;;3.40;67.10;;;;;;5054935;28;20138;-59
2021/12/26 11:52:59;;;;;;;4.95;3.13;;;3.30;67.60;;;;;;5093893;28;20369;-60
2021/12/26 11:55:44;;;;;;;4.85;3.08;;;3.30;68.00;;;;;;5094171;28;20472;-59
2021/12/26 11:58:35;;;;;;;6.88;3.42;;;3.20;68.50;;;;;;5075848;28;20024;-59
2021/12/26 12:01:02;;;;;;;3.67;2.45;;;3.20;68.70;;;;;;5094079;28;20376;-59
2021/12/26 12:03:31;;;;;;;4.80;3.05;;;3.20;68.80;;;;;;5093954;28;20103;-60
2021/12/26 12:05:57;;;;;;;4.32;2.40;;;3.10;69.10;;;;;;5093836;28;20077;-59
2021/12/26 12:08:23;;;;;;;6.00;2.83;;;3.00;69.30;;;;;;5093464;28;20065;-60
2021/12/26 12:10:57;;;;;;;6.57;3.50;;;3.10;69.40;;;;;;5093489;28;20107;-60
2021/12/26 12:13:23;;;;;;;5.10;2.85;;;3.20;69.50;;;;;;5093381;28;20026;-60
2021/12/26 12:15:54;;;;;;;4.30;2.85;;;3.20;69.60;;;;;;5093736;28;20020;-59
2021/12/26 12:18:24;;;;;;;4.63;2.50;;;3.20;69.70;;;;;;5093623;28;20070;-60
2021/12/26 12:21:09;;;;;;;4.00;2.30;;;3.20;69.80;;;;;;5093563;28;20059;-61
2021/12/26 12:23:36;;;;;;;6.18;2.80;;;3.20;69.80;;;;;;5092935;28;20048;-60
2021/12/26 12:26:03;;;;;;;4.88;3.28;;;3.20;70.00;;;;;;5075523;28;20039;-60
2021/12/26 12:28:32;;;;;;;4.68;3.15;;;3.20;70.40;;;;;;5075222;28;20024;-60
2021/12/26 12:31:15;;;;;;;6.80;3.63;;;3.10;70.70;;;;;;5075334;28;20024;-60
2021/12/26 12:33:42;;;;;;;5.80;3.47;;;3.10;70.80;;;;;;5074089;28;20036;-60
2021/12/26 12:36:29;;;;;;;6.10;3.55;;;3.10;71.00;;;;;;5092543;28;20024;-60
2021/12/26 12:39:18;;;;;;;5.15;3.33;;;3.10;71.20;;;;;;5073827;28;20032;-60
2021/12/26 12:41:51;;;;;;;6.93;3.60;;;3.00;71.50;;;;;;5072909;28;20427;-61
2021/12/26 12:44:34;;;;;;;5.00;3.20;;;3.00;71.80;;;;;;5074296;28;20028;-61
2021/12/26 12:47:17;;;;;;;8.13;4.10;;;3.00;71.80;;;;;;5073003;28;20558;-60
2021/12/26 12:49:51;;;;;;;6.20;3.50;;;3.00;72.00;;;;;;5072766;28;20503;-60
2021/12/26 12:52:45;;;;;;;6.00;3.33;;;2.90;72.30;;;;;;5072687;28;20027;-60
2021/12/26 12:55:42;;;;;;;6.10;3.33;;;2.90;72.60;;;;;;5086920;28;20047;-60
2021/12/26 12:58:32;;;;;;;5.88;3.35;;;2.90;72.90;;;;;;5086732;28;20024;-60